sensor_id;sensor_type;location;lat;lon;timestamp;pressure;altitude;pressure_sealevel;temperature;humidity
46448;BME280;32145;50.390;30.778;2023-01-29T01:17:16;100311.28;;;-8.12;81.90
46448;BME280;32145;50.390;30.778;2023-01-29T01:20:13;100309.97;;;-7.92;82.65
46448;BME280;32145;50.390;30.778;2023-01-29T01:22:58;100311.47;;;-7.75;82.79
46448;BME280;32145;50.390;30.778;2023-01-29T01:25:42;100322.84;;;-7.61;81.82
46448;BME280;32145;50.390;30.778;2023-01-29T01:28:26;100321.47;;;-7.54;82.37
46448;BME280;32145;50.390;30.778;2023-01-29T01:31:11;100322.97;;;-7.50;81.33
46448;BME280;32145;50.390;30.778;2023-01-29T01:33:57;100320.13;;;-7.47;81.49
46448;BME280;32145;50.390;30.778;2023-01-29T01:36:41;100322.53;;;-7.44;81.60
46448;BME280;32145;50.390;30.778;2023-01-29T01:39:25;100320.63;;;-7.42;81.32
46448;BME280;32145;50.390;30.778;2023-01-29T01:42:11;100315.38;;;-7.42;81.82
46448;BME280;32145;50.390;30.778;2023-01-29T01:44:57;100312.72;;;-7.42;81.63
46448;BME280;32145;50.390;30.778;2023-01-29T01:47:44;100318.09;;;-7.43;81.24
46448;BME280;32145;50.390;30.778;2023-01-29T01:50:34;100322.75;;;-7.47;80.78
46448;BME280;32145;50.390;30.778;2023-01-29T01:53:22;100322.97;;;-7.50;80.63
46448;BME280;32145;50.390;30.778;2023-01-29T01:56:13;100327.38;;;-7.51;81.04
46448;BME280;32145;50.390;30.778;2023-01-29T01:58:58;100330.09;;;-7.52;81.39
46448;BME280;32145;50.390;30.778;2023-01-29T02:01:45;100327.69;;;-7.55;80.60
46448;BME280;32145;50.390;30.778;2023-01-29T02:04:30;100321.69;;;-7.57;81.38
46448;BME280;32145;50.390;30.778;2023-01-29T02:07:15;100325.47;;;-7.61;80.47
46448;BME280;32145;50.390;30.778;2023-01-29T02:10:05;100326.44;;;-7.63;81.32
46448;BME280;32145;50.390;30.778;2023-01-29T02:12:51;100325.69;;;-7.65;81.30
46448;BME280;32145;50.390;30.778;2023-01-29T02:15:38;100326.84;;;-7.69;80.71
46448;BME280;32145;50.390;30.778;2023-01-29T02:18:22;100334.22;;;-7.74;80.99
46448;BME280;32145;50.390;30.778;2023-01-29T02:21:18;100332.31;;;-7.72;80.79
46448;BME280;32145;50.390;30.778;2023-01-29T02:24:14;100326.13;;;-7.71;80.40
46448;BME280;32145;50.390;30.778;2023-01-29T02:27:07;100324.19;;;-7.69;81.41
46448;BME280;32145;50.390;30.778;2023-01-29T02:30:01;100329.28;;;-7.66;81.30
46448;BME280;32145;50.390;30.778;2023-01-29T02:32:49;100325.28;;;-7.58;80.93
46448;BME280;32145;50.390;30.778;2023-01-29T02:35:40;100316.41;;;-7.57;80.96
46448;BME280;32145;50.390;30.778;2023-01-29T02:38:29;100324.31;;;-7.57;81.59
46448;BME280;32145;50.390;30.778;2023-01-29T02:41:20;100330.44;;;-7.57;81.15
46448;BME280;32145;50.390;30.778;2023-01-29T02:44:16;100329.47;;;-7.56;81.27
46448;BME280;32145;50.390;30.778;2023-01-29T02:47:05;100322.53;;;-7.57;81.59
46448;BME280;32145;50.390;30.778;2023-01-29T02:49:58;100323.16;;;-7.53;81.50
46448;BME280;32145;50.390;30.778;2023-01-29T02:52:51;100324.75;;;-7.51;81.00
46448;BME280;32145;50.390;30.778;2023-01-29T02:55:43;100328.22;;;-7.50;81.52
46448;BME280;32145;50.390;30.778;2023-01-29T02:58:33;100326.41;;;-7.50;81.67
46448;BME280;32145;50.390;30.778;2023-01-29T03:01:23;100329.19;;;-7.51;80.77
46448;BME280;32145;50.390;30.778;2023-01-29T03:04:23;100331.06;;;-7.53;81.71
46448;BME280;32145;50.390;30.778;2023-01-29T03:07:13;100327.81;;;-7.57;80.69
46448;BME280;32145;50.390;30.778;2023-01-29T03:10:00;100326.94;;;-7.57;81.33
46448;BME280;32145;50.390;30.778;2023-01-29T03:12:48;100328.63;;;-7.56;81.39
46448;BME280;32145;50.390;30.778;2023-01-29T03:15:38;100328.63;;;-7.56;80.64
46448;BME280;32145;50.390;30.778;2023-01-29T03:18:26;100329.28;;;-7.53;80.88
46448;BME280;32145;50.390;30.778;2023-01-29T03:21:18;100328.94;;;-7.48;80.77
46448;BME280;32145;50.390;30.778;2023-01-29T03:24:05;100329.25;;;-7.40;81.83
46448;BME280;32145;50.390;30.778;2023-01-29T03:26:51;100344.44;;;-7.30;81.22
46448;BME280;32145;50.390;30.778;2023-01-29T03:29:37;100342.03;;;-7.20;82.01
46448;BME280;32145;50.390;30.778;2023-01-29T03:32:24;100336.97;;;-7.10;81.35
46448;BME280;32145;50.390;30.778;2023-01-29T03:35:12;100336.31;;;-7.01;81.33
46448;BME280;32145;50.390;30.778;2023-01-29T03:37:59;100336.69;;;-6.94;82.00
46448;BME280;32145;50.390;30.778;2023-01-29T03:40:48;100337.97;;;-6.87;81.95
46448;BME280;32145;50.390;30.778;2023-01-29T03:43:37;100337.66;;;-6.82;81.35
46448;BME280;32145;50.390;30.778;2023-01-29T03:46:26;100341.63;;;-6.77;81.44
46448;BME280;32145;50.390;30.778;2023-01-29T03:49:18;100336.97;;;-6.73;81.05
46448;BME280;32145;50.390;30.778;2023-01-29T03:52:08;100336.56;;;-6.67;81.63
46448;BME280;32145;50.390;30.778;2023-01-29T03:55:02;100347.38;;;-6.58;81.49
46448;BME280;32145;50.390;30.778;2023-01-29T03:57:56;100332.81;;;-6.51;81.64
46448;BME280;32145;50.390;30.778;2023-01-29T04:00:44;100341.13;;;-6.44;81.80
46448;BME280;32145;50.390;30.778;2023-01-29T04:03:34;100334.56;;;-6.39;81.34
46448;BME280;32145;50.390;30.778;2023-01-29T04:06:22;100334.09;;;-6.32;80.72
46448;BME280;32145;50.390;30.778;2023-01-29T04:09:11;100333.88;;;-6.29;81.33
46448;BME280;32145;50.390;30.778;2023-01-29T04:12:03;100337.25;;;-6.27;81.32
46448;BME280;32145;50.390;30.778;2023-01-29T04:14:49;100328.38;;;-6.26;80.72
46448;BME280;32145;50.390;30.778;2023-01-29T04:17:37;100336.06;;;-6.23;80.71
46448;BME280;32145;50.390;30.778;2023-01-29T04:20:23;100332.25;;;-6.19;81.48
46448;BME280;32145;50.390;30.778;2023-01-29T04:23:18;100324.81;;;-6.14;81.03
46448;BME280;32145;50.390;30.778;2023-01-29T04:26:24;100319.22;;;-6.09;81.61
46448;BME280;32145;50.390;30.778;2023-01-29T04:29:23;100326.78;;;-6.04;81.07
46448;BME280;32145;50.390;30.778;2023-01-29T04:32:15;100327.47;;;-6.02;80.76
46448;BME280;32145;50.390;30.778;2023-01-29T04:35:09;100315.72;;;-5.98;80.94
46448;BME280;32145;50.390;30.778;2023-01-29T04:38:06;100321.75;;;-5.96;81.11
46448;BME280;32145;50.390;30.778;2023-01-29T04:40:59;100322.47;;;-5.94;80.88
46448;BME280;32145;50.390;30.778;2023-01-29T04:43:54;100328.34;;;-5.90;80.68
46448;BME280;32145;50.390;30.778;2023-01-29T04:46:46;100330.06;;;-5.89;80.56
46448;BME280;32145;50.390;30.778;2023-01-29T04:49:36;100328.97;;;-5.87;81.04
46448;BME280;32145;50.390;30.778;2023-01-29T04:52:32;100323.56;;;-5.85;81.25
46448;BME280;32145;50.390;30.778;2023-01-29T04:55:25;100327.78;;;-5.83;81.24
46448;BME280;32145;50.390;30.778;2023-01-29T04:58:15;100328.50;;;-5.80;80.86
46448;BME280;32145;50.390;30.778;2023-01-29T05:01:06;100328.28;;;-5.77;81.10
46448;BME280;32145;50.390;30.778;2023-01-29T05:03:53;100334.28;;;-5.75;80.67
46448;BME280;32145;50.390;30.778;2023-01-29T05:06:41;100340.28;;;-5.73;81.20
46448;BME280;32145;50.390;30.778;2023-01-29T05:09:25;100329.50;;;-5.70;81.26
46448;BME280;32145;50.390;30.778;2023-01-29T05:12:12;100334.66;;;-5.69;81.15
46448;BME280;32145;50.390;30.778;2023-01-29T05:14:59;100327.59;;;-5.68;80.75
46448;BME280;32145;50.390;30.778;2023-01-29T05:17:45;100337.19;;;-5.67;81.17
46448;BME280;32145;50.390;30.778;2023-01-29T05:20:32;100339.84;;;-5.67;80.76
46448;BME280;32145;50.390;30.778;2023-01-29T05:23:18;100337.91;;;-5.65;80.75
46448;BME280;32145;50.390;30.778;2023-01-29T05:26:03;100342.38;;;-5.65;80.86
46448;BME280;32145;50.390;30.778;2023-01-29T05:28:48;100345.72;;;-5.63;81.06
46448;BME280;32145;50.390;30.778;2023-01-29T05:31:31;100343.94;;;-5.63;80.82
46448;BME280;32145;50.390;30.778;2023-01-29T05:34:16;100346.44;;;-5.61;80.87
46448;BME280;32145;50.390;30.778;2023-01-29T05:37:01;100348.25;;;-5.62;80.78
46448;BME280;32145;50.390;30.778;2023-01-29T05:39:45;100351.84;;;-5.63;81.31
46448;BME280;32145;50.390;30.778;2023-01-29T05:42:29;100345.59;;;-5.62;81.21
46448;BME280;32145;50.390;30.778;2023-01-29T05:45:13;100339.59;;;-5.64;80.83
46448;BME280;32145;50.390;30.778;2023-01-29T05:47:58;100350.19;;;-5.64;81.23
46448;BME280;32145;50.390;30.778;2023-01-29T05:50:58;100350.06;;;-5.62;80.97
46448;BME280;32145;50.390;30.778;2023-01-29T05:53:46;100354.50;;;-5.63;81.37
46448;BME280;32145;50.390;30.778;2023-01-29T05:56:30;100351.63;;;-5.60;81.18
46448;BME280;32145;50.390;30.778;2023-01-29T05:59:14;100349.81;;;-5.59;81.25
46448;BME280;32145;50.390;30.778;2023-01-29T06:01:58;100353.41;;;-5.60;81.03
46448;BME280;32145;50.390;30.778;2023-01-29T06:04:42;100353.41;;;-5.60;81.42
46448;BME280;32145;50.390;30.778;2023-01-29T06:07:28;100348.97;;;-5.60;80.90
46448;BME280;32145;50.390;30.778;2023-01-29T06:10:16;100354.16;;;-5.58;81.13
46448;BME280;32145;50.390;30.778;2023-01-29T06:13:01;100358.59;;;-5.59;81.34
46448;BME280;32145;50.390;30.778;2023-01-29T06:15:45;100357.72;;;-5.59;81.22
46448;BME280;32145;50.390;30.778;2023-01-29T06:18:29;100350.78;;;-5.60;80.85
46448;BME280;32145;50.390;30.778;2023-01-29T06:21:13;100349.91;;;-5.61;81.12
46448;BME280;32145;50.390;30.778;2023-01-29T06:23:57;100346.34;;;-5.60;81.01
46448;BME280;32145;50.390;30.778;2023-01-29T06:26:42;100349.69;;;-5.58;81.34
46448;BME280;32145;50.390;30.778;2023-01-29T06:29:26;100346.09;;;-5.57;81.54
46448;BME280;32145;50.390;30.778;2023-01-29T06:32:10;100346.81;;;-5.54;81.08
46448;BME280;32145;50.390;30.778;2023-01-29T06:34:54;100344.66;;;-5.49;81.17
46448;BME280;32145;50.390;30.778;2023-01-29T06:37:40;100347.81;;;-5.44;81.17
46448;BME280;32145;50.390;30.778;2023-01-29T06:40:25;100348.06;;;-5.36;81.76
46448;BME280;32145;50.390;30.778;2023-01-29T06:43:10;100355.50;;;-5.30;81.38
46448;BME280;32145;50.390;30.778;2023-01-29T06:45:56;100357.47;;;-5.20;81.70
46448;BME280;32145;50.390;30.778;2023-01-29T06:48:40;100354.81;;;-5.09;81.49
46448;BME280;32145;50.390;30.778;2023-01-29T06:51:24;100347.59;;;-4.95;81.43
46448;BME280;32145;50.390;30.778;2023-01-29T06:54:09;100355.41;;;-4.82;81.28
46448;BME280;32145;50.390;30.778;2023-01-29T06:56:54;100355.25;;;-4.69;81.16
46448;BME280;32145;50.390;30.778;2023-01-29T06:59:39;100357.06;;;-4.58;81.02
46448;BME280;32145;50.390;30.778;2023-01-29T07:02:25;100352.69;;;-4.48;81.11
46448;BME280;32145;50.390;30.778;2023-01-29T07:05:10;100349.56;;;-4.42;80.61
46448;BME280;32145;50.390;30.778;2023-01-29T07:07:54;100348.13;;;-4.34;80.78
46448;BME280;32145;50.390;30.778;2023-01-29T07:10:37;100352.06;;;-4.29;80.75
46448;BME280;32145;50.390;30.778;2023-01-29T07:13:24;100355.19;;;-4.23;80.35
46448;BME280;32145;50.390;30.778;2023-01-29T07:16:10;100356.59;;;-4.19;80.23
46448;BME280;32145;50.390;30.778;2023-01-29T07:18:54;100357.06;;;-4.14;80.26
46448;BME280;32145;50.390;30.778;2023-01-29T07:21:38;100357.56;;;-4.09;80.77
46448;BME280;32145;50.390;30.778;2023-01-29T07:24:22;100351.28;;;-4.08;80.21
46448;BME280;32145;50.390;30.778;2023-01-29T07:27:06;100350.19;;;-4.05;80.42
46448;BME280;32145;50.390;30.778;2023-01-29T07:29:50;100350.63;;;-4.00;80.07
46448;BME280;32145;50.390;30.778;2023-01-29T07:32:35;100348.19;;;-3.92;80.62
46448;BME280;32145;50.390;30.778;2023-01-29T07:35:20;100341.28;;;-3.83;80.32
46448;BME280;32145;50.390;30.778;2023-01-29T07:38:04;100351.16;;;-3.73;80.02
46448;BME280;32145;50.390;30.778;2023-01-29T07:40:50;100346.97;;;-3.66;79.71
46448;BME280;32145;50.390;30.778;2023-01-29T07:43:35;100353.00;;;-3.64;79.61
46448;BME280;32145;50.390;30.778;2023-01-29T07:46:18;100346.47;;;-3.60;79.64
46448;BME280;32145;50.390;30.778;2023-01-29T07:49:04;100346.22;;;-3.57;79.95
46448;BME280;32145;50.390;30.778;2023-01-29T07:51:48;100351.28;;;-3.54;79.97
46448;BME280;32145;50.390;30.778;2023-01-29T07:54:32;100340.38;;;-3.51;79.92
46448;BME280;32145;50.390;30.778;2023-01-29T07:57:16;100343.16;;;-3.52;79.69
46448;BME280;32145;50.390;30.778;2023-01-29T08:00:00;100347.66;;;-3.53;79.83
46448;BME280;32145;50.390;30.778;2023-01-29T08:02:44;100348.81;;;-3.45;79.52
46448;BME280;32145;50.390;30.778;2023-01-29T08:05:29;100346.34;;;-3.37;80.13
46448;BME280;32145;50.390;30.778;2023-01-29T08:08:14;100346.78;;;-3.32;79.93
46448;BME280;32145;50.390;30.778;2023-01-29T08:11:00;100356.88;;;-3.26;79.75
46448;BME280;32145;50.390;30.778;2023-01-29T08:13:44;100358.47;;;-3.13;80.01
46448;BME280;32145;50.390;30.778;2023-01-29T08:16:28;100353.78;;;-3.00;79.85
46448;BME280;32145;50.390;30.778;2023-01-29T08:19:12;100354.66;;;-2.89;79.59
46448;BME280;32145;50.390;30.778;2023-01-29T08:21:57;100356.63;;;-2.81;79.93
46448;BME280;32145;50.390;30.778;2023-01-29T08:24:41;100359.59;;;-2.75;79.08
46448;BME280;32145;50.390;30.778;2023-01-29T08:27:25;100358.09;;;-2.67;79.45
46448;BME280;32145;50.390;30.778;2023-01-29T08:30:10;100356.44;;;-2.59;79.64
46448;BME280;32145;50.390;30.778;2023-01-29T08:32:55;100360.09;;;-2.50;79.31
46448;BME280;32145;50.390;30.778;2023-01-29T08:35:39;100356.19;;;-2.46;78.60
46448;BME280;32145;50.390;30.778;2023-01-29T08:38:25;100365.53;;;-2.51;78.22
46448;BME280;32145;50.390;30.778;2023-01-29T08:41:09;100360.91;;;-2.59;78.58
46448;BME280;32145;50.390;30.778;2023-01-29T08:43:53;100363.28;;;-2.56;79.05
46448;BME280;32145;50.390;30.778;2023-01-29T08:46:37;100361.06;;;-2.51;79.41
46448;BME280;32145;50.390;30.778;2023-01-29T08:49:21;100361.78;;;-2.49;78.81
46448;BME280;32145;50.390;30.778;2023-01-29T08:52:04;100358.13;;;-2.48;78.54
46448;BME280;32145;50.390;30.778;2023-01-29T08:54:50;100358.59;;;-2.42;79.14
46448;BME280;32145;50.390;30.778;2023-01-29T08:57:34;100355.78;;;-2.41;79.25
46448;BME280;32145;50.390;30.778;2023-01-29T09:00:18;100347.41;;;-2.36;79.05
46448;BME280;32145;50.390;30.778;2023-01-29T09:03:03;100347.41;;;-2.36;78.89
46448;BME280;32145;50.390;30.778;2023-01-29T09:05:47;100351.47;;;-2.32;78.87
46448;BME280;32145;50.390;30.778;2023-01-29T09:08:31;100342.50;;;-2.31;78.46
46448;BME280;32145;50.390;30.778;2023-01-29T09:11:17;100341.41;;;-2.28;78.59
46448;BME280;32145;50.390;30.778;2023-01-29T09:14:01;100343.91;;;-2.27;78.75
46448;BME280;32145;50.390;30.778;2023-01-29T09:16:45;100344.63;;;-2.25;79.00
46448;BME280;32145;50.390;30.778;2023-01-29T09:19:29;100334.69;;;-2.23;78.42
46448;BME280;32145;50.390;30.778;2023-01-29T09:22:13;100335.25;;;-2.29;78.15
46448;BME280;32145;50.390;30.778;2023-01-29T09:24:57;100338.19;;;-2.32;78.29
46448;BME280;32145;50.390;30.778;2023-01-29T09:27:42;100334.13;;;-2.26;78.19
46448;BME280;32145;50.390;30.778;2023-01-29T09:30:26;100336.66;;;-2.15;78.64
46448;BME280;32145;50.390;30.778;2023-01-29T09:33:11;100330.81;;;-2.09;78.95
46448;BME280;32145;50.390;30.778;2023-01-29T09:35:55;100326.44;;;-2.10;78.60
46448;BME280;32145;50.390;30.778;2023-01-29T09:38:39;100330.22;;;-2.12;78.40
46448;BME280;32145;50.390;30.778;2023-01-29T09:41:32;100321.28;;;-2.11;78.64
46448;BME280;32145;50.390;30.778;2023-01-29T09:44:25;100321.72;;;-2.06;78.50
46448;BME280;32145;50.390;30.778;2023-01-29T09:47:14;100320.72;;;-2.05;78.08
46448;BME280;32145;50.390;30.778;2023-01-29T09:50:01;100323.94;;;-2.01;78.10
46448;BME280;32145;50.390;30.778;2023-01-29T09:52:52;100314.88;;;-1.99;78.42
46448;BME280;32145;50.390;30.778;2023-01-29T09:55:42;100313.75;;;-1.96;78.37
46448;BME280;32145;50.390;30.778;2023-01-29T09:58:31;100310.94;;;-1.95;78.59
46448;BME280;32145;50.390;30.778;2023-01-29T10:01:23;100298.34;;;-1.92;78.44
46448;BME280;32145;50.390;30.778;2023-01-29T10:04:39;100294.13;;;-1.85;78.55
46448;BME280;32145;50.390;30.778;2023-01-29T10:07:44;100298.59;;;-1.76;77.89
46448;BME280;32145;50.390;30.778;2023-01-29T10:10:43;100292.88;;;-1.81;78.19
46448;BME280;32145;50.390;30.778;2023-01-29T10:13:39;100289.38;;;-1.82;78.06
46448;BME280;32145;50.390;30.778;2023-01-29T10:16:38;100287.97;;;-1.76;78.18
46448;BME280;32145;50.390;30.778;2023-01-29T10:19:47;100285.16;;;-1.74;77.85
46448;BME280;32145;50.390;30.778;2023-01-29T10:22:43;100277.31;;;-1.76;78.33
46448;BME280;32145;50.390;30.778;2023-01-29T10:25:30;100280.25;;;-1.69;78.15
46448;BME280;32145;50.390;30.778;2023-01-29T10:28:19;100274.91;;;-1.59;78.25
46448;BME280;32145;50.390;30.778;2023-01-29T10:31:07;100275.34;;;-1.54;78.13
46448;BME280;32145;50.390;30.778;2023-01-29T10:33:56;100267.06;;;-1.51;78.22
46448;BME280;32145;50.390;30.778;2023-01-29T10:36:47;100272.69;;;-1.54;77.37
46448;BME280;32145;50.390;30.778;2023-01-29T10:39:32;100268.91;;;-1.61;77.28
46448;BME280;32145;50.390;30.778;2023-01-29T10:42:25;100261.50;;;-1.67;77.61
46448;BME280;32145;50.390;30.778;2023-01-29T10:45:19;100254.41;;;-1.77;77.66
46448;BME280;32145;50.390;30.778;2023-01-29T10:48:38;100254.94;;;-1.83;77.51
46448;BME280;32145;50.390;30.778;2023-01-29T10:51:37;100248.53;;;-1.80;77.84
46448;BME280;32145;50.390;30.778;2023-01-29T10:54:37;100250.88;;;-1.77;77.65
46448;BME280;32145;50.390;30.778;2023-01-29T10:57:35;100241.81;;;-1.75;77.63
46448;BME280;32145;50.390;30.778;2023-01-29T11:00:25;100239.84;;;-1.73;77.78
46448;BME280;32145;50.390;30.778;2023-01-29T11:03:14;100236.19;;;-1.72;77.53
46448;BME280;32145;50.390;30.778;2023-01-29T11:06:07;100235.22;;;-1.71;78.00
46448;BME280;32145;50.390;30.778;2023-01-29T11:08:58;100228.06;;;-1.70;77.77
46448;BME280;32145;50.390;30.778;2023-01-29T11:11:49;100224.13;;;-1.66;77.32
46448;BME280;32145;50.390;30.778;2023-01-29T11:14:40;100236.28;;;-1.63;77.38
46448;BME280;32145;50.390;30.778;2023-01-29T11:17:25;100231.97;;;-1.64;77.62
46448;BME280;32145;50.390;30.778;2023-01-29T11:20:25;100224.97;;;-1.65;77.85
46448;BME280;32145;50.390;30.778;2023-01-29T11:23:25;100213.66;;;-1.67;77.60
46448;BME280;32145;50.390;30.778;2023-01-29T11:26:12;100229.44;;;-1.66;77.90
46448;BME280;32145;50.390;30.778;2023-01-29T11:28:59;100223.00;;;-1.63;77.54
46448;BME280;32145;50.390;30.778;2023-01-29T11:31:43;100214.75;;;-1.60;77.59
46448;BME280;32145;50.390;30.778;2023-01-29T11:34:27;100214.84;;;-1.52;78.03
46448;BME280;32145;50.390;30.778;2023-01-29T11:37:15;100219.59;;;-1.46;77.56
46448;BME280;32145;50.390;30.778;2023-01-29T11:39:59;100222.41;;;-1.47;77.25
46448;BME280;32145;50.390;30.778;2023-01-29T11:42:46;100221.25;;;-1.45;77.41
46448;BME280;32145;50.390;30.778;2023-01-29T11:45:30;100224.63;;;-1.43;77.06
46448;BME280;32145;50.390;30.778;2023-01-29T11:48:16;100221.38;;;-1.36;77.36
46448;BME280;32145;50.390;30.778;2023-01-29T11:51:01;100222.06;;;-1.34;77.15
46448;BME280;32145;50.390;30.778;2023-01-29T11:53:48;100218.41;;;-1.33;77.17
46448;BME280;32145;50.390;30.778;2023-01-29T11:56:38;100214.78;;;-1.32;77.00
46448;BME280;32145;50.390;30.778;2023-01-29T11:59:32;100214.78;;;-1.32;76.98
46448;BME280;32145;50.390;30.778;2023-01-29T12:02:25;100205.97;;;-1.33;76.67
46448;BME280;32145;50.390;30.778;2023-01-29T12:05:13;100204.13;;;-1.32;76.57
46448;BME280;32145;50.390;30.778;2023-01-29T12:07:59;100206.22;;;-1.26;76.97
46448;BME280;32145;50.390;30.778;2023-01-29T12:10:45;100210.00;;;-1.28;76.37
46448;BME280;32145;50.390;30.778;2023-01-29T12:13:29;100201.03;;;-1.27;76.42
46448;BME280;32145;50.390;30.778;2023-01-29T12:16:20;100198.22;;;-1.26;75.94
46448;BME280;32145;50.390;30.778;2023-01-29T12:19:12;100199.31;;;-1.19;76.42
46448;BME280;32145;50.390;30.778;2023-01-29T12:22:02;100191.34;;;-1.19;76.40
46448;BME280;32145;50.390;30.778;2023-01-29T12:24:51;100196.50;;;-1.17;76.20
46448;BME280;32145;50.390;30.778;2023-01-29T12:27:42;100206.97;;;-1.15;75.99
46448;BME280;32145;50.390;30.778;2023-01-29T12:30:34;100197.41;;;-1.08;76.21
46448;BME280;32145;50.390;30.778;2023-01-29T12:33:31;100201.44;;;-1.04;75.74
46448;BME280;32145;50.390;30.778;2023-01-29T12:36:23;100196.84;;;-1.02;76.04
46448;BME280;32145;50.390;30.778;2023-01-29T12:39:10;100196.13;;;-1.04;76.00
46448;BME280;32145;50.390;30.778;2023-01-29T12:41:59;100201.44;;;-1.04;75.68
46448;BME280;32145;50.390;30.778;2023-01-29T12:44:47;100201.78;;;-1.07;75.46
46448;BME280;32145;50.390;30.778;2023-01-29T12:47:37;100192.56;;;-1.13;75.05
46448;BME280;32145;50.390;30.778;2023-01-29T12:50:28;100198.69;;;-1.12;75.54
46448;BME280;32145;50.390;30.778;2023-01-29T12:53:22;100197.88;;;-1.13;75.58
46448;BME280;32145;50.390;30.778;2023-01-29T12:56:11;100197.03;;;-1.13;75.32
46448;BME280;32145;50.390;30.778;2023-01-29T12:58:58;100195.38;;;-1.14;75.24
46448;BME280;32145;50.390;30.778;2023-01-29T13:01:46;100195.38;;;-1.14;75.25
46448;BME280;32145;50.390;30.778;2023-01-29T13:04:37;100190.34;;;-1.18;74.81
46448;BME280;32145;50.390;30.778;2023-01-29T13:07:27;100187.69;;;-1.18;75.36
46448;BME280;32145;50.390;30.778;2023-01-29T13:10:16;100188.66;;;-1.19;75.29
46448;BME280;32145;50.390;30.778;2023-01-29T13:13:05;100185.31;;;-1.21;74.60
46448;BME280;32145;50.390;30.778;2023-01-29T13:15:54;100191.25;;;-1.27;74.38
46448;BME280;32145;50.390;30.778;2023-01-29T13:18:40;100193.72;;;-1.25;75.19
46448;BME280;32145;50.390;30.778;2023-01-29T13:21:30;100188.25;;;-1.24;74.89
46448;BME280;32145;50.390;30.778;2023-01-29T13:24:22;100185.59;;;-1.24;74.72
46448;BME280;32145;50.390;30.778;2023-01-29T13:27:21;100188.59;;;-1.27;74.68
46448;BME280;32145;50.390;30.778;2023-01-29T13:30:19;100186.34;;;-1.32;74.32
46448;BME280;32145;50.390;30.778;2023-01-29T13:33:05;100190.53;;;-1.29;75.04
46448;BME280;32145;50.390;30.778;2023-01-29T13:35:57;100186.50;;;-1.33;74.84
46448;BME280;32145;50.390;30.778;2023-01-29T13:38:42;100190.16;;;-1.34;74.71
46448;BME280;32145;50.390;30.778;2023-01-29T13:41:37;100188.44;;;-1.35;74.50
46448;BME280;32145;50.390;30.778;2023-01-29T13:44:24;100186.13;;;-1.38;74.28
46448;BME280;32145;50.390;30.778;2023-01-29T13:47:10;100183.75;;;-1.41;75.07
46448;BME280;32145;50.390;30.778;2023-01-29T13:50:05;100180.09;;;-1.40;74.74
46448;BME280;32145;50.390;30.778;2023-01-29T13:52:54;100187.06;;;-1.39;74.91
46448;BME280;32145;50.390;30.778;2023-01-29T13:55:39;100185.41;;;-1.40;74.65
46448;BME280;32145;50.390;30.778;2023-01-29T13:58:52;100189.72;;;-1.39;74.63
46448;BME280;32145;50.390;30.778;2023-01-29T14:02:18;100183.47;;;-1.38;75.04
46448;BME280;32145;50.390;30.778;2023-01-29T14:05:39;100182.06;;;-1.43;75.15
46448;BME280;32145;50.390;30.778;2023-01-29T14:08:37;100184.03;;;-1.45;75.21
46448;BME280;32145;50.390;30.778;2023-01-29T14:11:33;100189.50;;;-1.46;75.30
46448;BME280;32145;50.390;30.778;2023-01-29T14:15:04;100181.50;;;-1.46;75.55
46448;BME280;32145;50.390;30.778;2023-01-29T14:18:13;100178.31;;;-1.50;75.28
46448;BME280;32145;50.390;30.778;2023-01-29T14:21:00;100175.94;;;-1.53;74.99
46448;BME280;32145;50.390;30.778;2023-01-29T14:23:47;100173.44;;;-1.54;74.91
46448;BME280;32145;50.390;30.778;2023-01-29T14:26:40;100173.44;;;-1.54;74.96
46448;BME280;32145;50.390;30.778;2023-01-29T14:29:27;100169.25;;;-1.57;75.34
46448;BME280;32145;50.390;30.778;2023-01-29T14:32:17;100171.22;;;-1.59;75.50
46448;BME280;32145;50.390;30.778;2023-01-29T14:35:09;100170.53;;;-1.61;75.27
46448;BME280;32145;50.390;30.778;2023-01-29T14:38:03;100171.53;;;-1.62;75.71
46448;BME280;32145;50.390;30.778;2023-01-29T14:40:48;100163.84;;;-1.65;75.58
46448;BME280;32145;50.390;30.778;2023-01-29T14:43:33;100175.47;;;-1.66;75.45
46448;BME280;32145;50.390;30.778;2023-01-29T14:46:42;100176.28;;;-1.66;75.71
46448;BME280;32145;50.390;30.778;2023-01-29T14:49:51;100172.09;;;-1.69;75.62
46448;BME280;32145;50.390;30.778;2023-01-29T14:52:38;100184.72;;;-1.71;76.30
46448;BME280;32145;50.390;30.778;2023-01-29T14:55:28;100186.66;;;-1.73;75.79
46448;BME280;32145;50.390;30.778;2023-01-29T14:58:16;100181.63;;;-1.76;75.52
46448;BME280;32145;50.390;30.778;2023-01-29T15:01:14;100194.25;;;-1.78;75.51
46448;BME280;32145;50.390;30.778;2023-01-29T15:04:03;100187.22;;;-1.79;75.53
46448;BME280;32145;50.390;30.778;2023-01-29T15:06:51;100190.88;;;-1.80;76.44
46448;BME280;32145;50.390;30.778;2023-01-29T15:09:43;100189.34;;;-1.83;75.82
46448;BME280;32145;50.390;30.778;2023-01-29T15:12:34;100194.81;;;-1.84;75.94
46448;BME280;32145;50.390;30.778;2023-01-29T15:15:31;100187.81;;;-1.85;76.04
46448;BME280;32145;50.390;30.778;2023-01-29T15:18:22;100187.13;;;-1.87;76.11
46448;BME280;32145;50.390;30.778;2023-01-29T15:21:13;100195.09;;;-1.87;76.15
46448;BME280;32145;50.390;30.778;2023-01-29T15:24:04;100195.09;;;-1.87;76.57
46448;BME280;32145;50.390;30.778;2023-01-29T15:26:49;100197.06;;;-1.89;76.47
46448;BME280;32145;50.390;30.778;2023-01-29T15:29:34;100193.44;;;-1.88;76.11
46448;BME280;32145;50.390;30.778;2023-01-29T15:32:24;100189.91;;;-1.89;76.21
46448;BME280;32145;50.390;30.778;2023-01-29T15:35:16;100194.41;;;-1.89;76.66
46448;BME280;32145;50.390;30.778;2023-01-29T15:38:05;100199.72;;;-1.89;76.07
46448;BME280;32145;50.390;30.778;2023-01-29T15:40:55;100191.75;;;-1.89;76.48
46448;BME280;32145;50.390;30.778;2023-01-29T15:43:43;100196.22;;;-1.90;76.72
46448;BME280;32145;50.390;30.778;2023-01-29T15:46:30;100190.09;;;-1.90;76.81
46448;BME280;32145;50.390;30.778;2023-01-29T15:49:19;100191.75;;;-1.89;76.69